Time,TemperatureF,DewpointF,PressureIn,WindDirection,WindDirectionDegrees,WindSpeedMPH,WindSpeedGustMPH,Humidity,HourlyPrecipIn,Conditions,Clouds,dailyrainin,SoftwareType,DateUTC
2013-10-11 00:14:00,60.0,-99.9,-100.00,SSE,167,1.0,3.0,-999,0.00,,,-99.99,,2013-10-11 05:14:00,
2013-10-11 00:23:00,60.0,-99.9,-100.00,SSE,167,1.0,3.0,-999,0.00,,,-99.99,,2013-10-11 05:23:00,
2013-10-11 00:43:00,60.0,-99.9,-100.00,SSE,166,1.0,2.0,-999,0.00,,,-99.99,,2013-10-11 05:43:00,
2013-10-11 00:52:00,60.0,-99.9,-100.00,SSE,166,1.0,2.0,-999,0.00,,,-99.99,,2013-10-11 05:52:00,
2013-10-11 01:12:00,60.0,-99.9,-100.00,SSE,168,1.0,2.0,-999,0.00,,,-99.99,,2013-10-11 06:12:00,
2013-10-11 01:22:00,60.0,-99.9,-100.00,SSE,168,1.0,2.0,-999,0.00,,,-99.99,,2013-10-11 06:22:00,
2013-10-11 01:43:00,59.0,-99.9,-100.00,SSE,160,1.0,2.0,-999,0.00,,,-99.99,,2013-10-11 06:43:00,
2013-10-11 01:52:00,59.0,-99.9,-100.00,SSE,160,1.0,2.0,-999,0.00,,,-99.99,,2013-10-11 06:52:00,
2013-10-11 02:12:00,59.0,-99.9,-100.00,SSE,162,2.0,2.0,-999,0.00,,,-99.99,,2013-10-11 07:12:00,
2013-10-11 02:22:00,59.0,-99.9,-100.00,SSE,162,2.0,2.0,-999,0.00,,,-99.99,,2013-10-11 07:22:00,
2013-10-11 02:42:00,60.0,-99.9,-100.00,SSE,162,2.0,3.0,-999,0.00,,,-99.99,,2013-10-11 07:42:00,
2013-10-11 02:52:00,60.0,-99.9,-100.00,SSE,162,2.0,3.0,-999,0.00,,,-99.99,,2013-10-11 07:52:00,
2013-10-11 03:12:00,59.0,-99.9,-100.00,SSE,164,1.0,3.0,-999,0.00,,,-99.99,,2013-10-11 08:12:00,
2013-10-11 03:22:00,59.0,-99.9,-100.00,SSE,164,1.0,3.0,-999,0.00,,,-99.99,,2013-10-11 08:22:00,
2013-10-11 03:42:00,59.0,-99.9,-100.00,SSE,151,2.0,4.0,-999,0.00,,,-99.99,,2013-10-11 08:42:00,
2013-10-11 04:12:00,58.0,-99.9,-100.00,South,171,1.0,3.0,-999,0.00,,,-99.99,,2013-10-11 09:12:00,
2013-10-11 04:22:00,58.0,-99.9,-100.00,South,171,1.0,3.0,-999,0.00,,,-99.99,,2013-10-11 09:22:00,
2013-10-11 04:43:00,57.0,-99.9,-100.00,SE,145,3.0,4.0,-999,0.00,,,-99.99,,2013-10-11 09:43:00,
2013-10-11 04:54:00,57.0,-99.9,-100.00,SE,145,3.0,4.0,-999,0.00,,,-99.99,,2013-10-11 09:54:00,
2013-10-11 05:12:00,57.0,-99.9,-100.00,SE,135,3.0,5.0,-999,0.00,,,-99.99,,2013-10-11 10:12:00,
2013-10-11 05:23:00,57.0,-99.9,-100.00,SE,135,3.0,5.0,-999,0.00,,,-99.99,,2013-10-11 10:23:00,
2013-10-11 05:43:00,56.0,-99.9,-100.00,SSE,158,1.0,2.0,-999,0.00,,,-99.99,,2013-10-11 10:43:00,
2013-10-11 05:54:00,56.0,-99.9,-100.00,SSE,158,1.0,2.0,-999,0.00,,,-99.99,,2013-10-11 10:54:00,
2013-10-11 06:12:00,56.0,-99.9,-100.00,SSE,150,2.0,4.0,-999,0.00,,,-99.99,,2013-10-11 11:12:00,
2013-10-11 06:22:00,56.0,-99.9,-100.00,SSE,150,2.0,4.0,-999,0.00,,,-99.99,,2013-10-11 11:22:00,
2013-10-11 06:43:00,57.0,-99.9,-100.00,SSE,160,2.0,4.0,-999,0.00,,,0.00,,2013-10-11 11:43:00,
2013-10-11 06:52:00,57.0,-99.9,-100.00,SSE,160,2.0,4.0,-999,0.00,,,0.00,,2013-10-11 11:52:00,
2013-10-11 07:12:00,57.0,-99.9,-100.00,SSE,154,2.0,3.0,-999,0.00,,,0.00,,2013-10-11 12:12:00,
2013-10-11 07:22:00,57.0,-99.9,-100.00,SSE,154,2.0,3.0,-999,0.00,,,0.00,,2013-10-11 12:22:00,
2013-10-11 07:42:00,57.0,-99.9,-100.00,SSE,162,2.0,3.0,-999,0.00,,,0.00,,2013-10-11 12:42:00,
2013-10-11 07:52:00,57.0,-99.9,-100.00,SSE,162,2.0,3.0,-999,0.00,,,0.00,,2013-10-11 12:52:00,
2013-10-11 08:12:00,57.0,-99.9,-100.00,SSE,154,2.0,4.0,-999,0.00,,,0.00,,2013-10-11 13:12:00,
2013-10-11 08:22:00,57.0,-99.9,-100.00,SSE,154,2.0,4.0,-999,0.00,,,0.00,,2013-10-11 13:22:00,
2013-10-11 08:43:00,58.0,-99.9,-100.00,SE,146,3.0,5.0,-999,0.00,,,0.00,,2013-10-11 13:43:00,
2013-10-11 08:53:00,58.0,-99.9,-100.00,SE,146,3.0,5.0,-999,0.00,,,0.00,,2013-10-11 13:53:00,
2013-10-11 09:11:00,61.0,-99.9,-100.00,South,170,3.0,4.0,-999,0.00,,,0.00,,2013-10-11 14:11:00,
2013-10-11 09:22:00,61.0,-99.9,-100.00,South,170,3.0,4.0,-999,0.00,,,0.00,,2013-10-11 14:22:00,
2013-10-11 09:42:00,63.0,-99.9,-100.00,SSE,162,5.0,9.0,-999,0.00,,,0.00,,2013-10-11 14:42:00,
2013-10-11 09:52:00,63.0,-99.9,-100.00,SSE,162,5.0,9.0,-999,0.00,,,0.00,,2013-10-11 14:52:00,
2013-10-11 10:11:00,65.0,-99.9,-100.00,SE,144,4.0,6.0,-999,0.00,,,0.00,,2013-10-11 15:11:00,
2013-10-11 10:22:00,65.0,-99.9,-100.00,SE,144,4.0,6.0,-999,0.00,,,0.00,,2013-10-11 15:22:00,
2013-10-11 10:44:00,68.0,-99.9,-100.00,South,175,3.0,6.0,-999,0.00,,,0.00,,2013-10-11 15:44:00,
2013-10-11 10:54:00,68.0,-99.9,-100.00,South,175,3.0,6.0,-999,0.00,,,0.00,,2013-10-11 15:54:00,
2013-10-11 11:13:00,70.0,-99.9,-100.00,SSE,165,4.0,9.0,-999,0.00,,,0.00,,2013-10-11 16:13:00,
2013-10-11 11:22:00,70.0,-99.9,-100.00,SSE,165,4.0,9.0,-999,0.00,,,0.00,,2013-10-11 16:22:00,
2013-10-11 11:43:00,72.0,-99.9,-100.00,South,170,5.0,7.0,-999,0.00,,,0.00,,2013-10-11 16:43:00,
2013-10-11 11:53:00,72.0,-99.9,-100.00,South,170,5.0,7.0,-999,0.00,,,0.00,,2013-10-11 16:53:00,
2013-10-11 12:12:00,74.0,-99.9,-100.00,South,184,6.0,11.0,-999,0.00,,,0.00,,2013-10-11 17:12:00,
2013-10-11 12:22:00,74.0,-99.9,-100.00,South,184,6.0,11.0,-999,0.00,,,0.00,,2013-10-11 17:22:00,
2013-10-11 12:43:00,75.0,-99.9,-100.00,South,174,6.0,11.0,-999,0.00,,,0.00,,2013-10-11 17:43:00,
2013-10-11 12:53:00,75.0,-99.9,-100.00,South,174,6.0,11.0,-999,0.00,,,0.00,,2013-10-11 17:53:00,
2013-10-11 13:12:00,75.0,-99.9,-100.00,SSE,157,7.0,12.0,-999,0.00,,,0.00,,2013-10-11 18:12:00,
2013-10-11 13:22:00,75.0,-99.9,-100.00,SSE,157,7.0,12.0,-999,0.00,,,0.00,,2013-10-11 18:22:00,
2013-10-11 13:43:00,76.0,-99.9,-100.00,SSE,155,6.0,12.0,-999,0.00,,,0.00,,2013-10-11 18:43:00,
2013-10-11 13:53:00,76.0,-99.9,-100.00,SSE,155,6.0,12.0,-999,0.00,,,0.00,,2013-10-11 18:53:00,
2013-10-11 14:11:00,78.0,-99.9,-100.00,SSE,160,7.0,11.0,-999,0.00,,,0.00,,2013-10-11 19:11:00,
2013-10-11 14:22:00,78.0,-99.9,-100.00,SSE,160,7.0,11.0,-999,0.00,,,0.00,,2013-10-11 19:22:00,
2013-10-11 14:43:00,79.0,-99.9,-100.00,SSE,150,8.0,13.0,-999,0.00,,,0.00,,2013-10-11 19:43:00,
2013-10-11 14:53:00,79.0,-99.9,-100.00,SSE,150,8.0,13.0,-999,0.00,,,0.00,,2013-10-11 19:53:00,
2013-10-11 15:12:00,79.0,-99.9,-100.00,SE,140,10.0,16.0,-999,0.00,,,0.00,,2013-10-11 20:12:00,
2013-10-11 15:23:00,79.0,-99.9,-100.00,SE,140,10.0,16.0,-999,0.00,,,0.00,,2013-10-11 20:23:00,
2013-10-11 15:43:00,79.0,-99.9,-100.00,SSE,149,8.0,14.0,-999,0.00,,,0.00,,2013-10-11 20:43:00,
2013-10-11 15:53:00,79.0,-99.9,-100.00,SSE,149,8.0,14.0,-999,0.00,,,0.00,,2013-10-11 20:53:00,
2013-10-11 16:12:00,80.0,-99.9,-100.00,SSE,155,6.0,9.0,-999,0.00,,,0.00,,2013-10-11 21:12:00,
2013-10-11 16:22:00,80.0,-99.9,-100.00,SSE,155,6.0,9.0,-999,0.00,,,0.00,,2013-10-11 21:22:00,
2013-10-11 16:30:00,80.0,-99.9,-100.00,SSE,157,6.0,8.0,-999,0.00,,,0.00,,2013-10-11 21:30:00,
2013-10-11 16:43:00,80.0,-99.9,-100.00,SSE,154,5.0,8.0,-999,0.00,,,0.00,,2013-10-11 21:43:00,
2013-10-11 16:55:00,80.0,-99.9,-100.00,SSE,154,5.0,8.0,-999,0.00,,,0.00,,2013-10-11 21:55:00,
2013-10-11 17:13:00,80.0,-99.9,-100.00,SSE,157,6.0,8.0,-999,0.00,,,0.00,,2013-10-11 22:13:00,
2013-10-11 17:24:00,80.0,-99.9,-100.00,SSE,157,6.0,8.0,-999,0.00,,,0.00,,2013-10-11 22:24:00,
2013-10-11 18:12:00,79.0,-99.9,-100.00,SSE,158,5.0,9.0,-999,0.00,,,0.00,,2013-10-11 23:12:00,
2013-10-11 18:22:00,79.0,-99.9,-100.00,SSE,158,5.0,9.0,-999,0.00,,,0.00,,2013-10-11 23:22:00,
2013-10-11 18:42:00,77.0,-99.9,-100.00,SSE,155,3.0,4.0,-999,0.00,,,0.00,,2013-10-11 23:42:00,
2013-10-11 18:53:00,77.0,-99.9,-100.00,SSE,155,3.0,4.0,-999,0.00,,,0.00,,2013-10-11 23:53:00,
2013-10-11 19:12:00,74.0,-99.9,-100.00,SE,138,3.0,6.0,-999,0.00,,,0.00,,2013-10-12 00:12:00,
2013-10-11 19:22:00,74.0,-99.9,-100.00,SE,138,3.0,6.0,-999,0.00,,,0.00,,2013-10-12 00:22:00,
2013-10-11 19:42:00,73.0,-99.9,-100.00,SE,131,4.0,8.0,-999,0.00,,,0.00,,2013-10-12 00:42:00,
2013-10-11 19:53:00,73.0,-99.9,-100.00,SE,131,4.0,8.0,-999,0.00,,,0.00,,2013-10-12 00:53:00,
2013-10-11 20:12:00,70.0,-99.9,-100.00,South,175,1.0,2.0,-999,0.00,,,0.00,,2013-10-12 01:12:00,
2013-10-11 20:22:00,70.0,-99.9,-100.00,South,175,1.0,2.0,-999,0.00,,,0.00,,2013-10-12 01:22:00,
2013-10-11 20:42:00,70.0,-99.9,-100.00,SE,143,4.0,6.0,-999,0.00,,,0.00,,2013-10-12 01:42:00,
2013-10-11 21:12:00,69.0,-99.9,-100.00,SSE,161,3.0,5.0,-999,0.00,,,0.00,,2013-10-12 02:12:00,
2013-10-11 21:23:00,69.0,-99.9,-100.00,SSE,161,3.0,5.0,-999,0.00,,,0.00,,2013-10-12 02:23:00,
2013-10-11 21:42:00,69.0,-99.9,-100.00,SSE,151,3.0,5.0,-999,0.00,,,0.00,,2013-10-12 02:42:00,
2013-10-11 21:52:00,69.0,-99.9,-100.00,SSE,151,3.0,5.0,-999,0.00,,,0.00,,2013-10-12 02:52:00,
2013-10-11 22:12:00,69.0,-99.9,-100.00,SSE,158,3.0,4.0,-999,0.00,,,0.00,,2013-10-12 03:12:00,
2013-10-11 22:23:00,69.0,-99.9,-100.00,SSE,158,3.0,4.0,-999,0.00,,,0.00,,2013-10-12 03:23:00,
2013-10-11 22:44:00,69.0,-99.9,-100.00,SE,145,3.0,5.0,-999,0.00,,,0.00,,2013-10-12 03:44:00,
2013-10-11 23:14:00,70.0,-99.9,-100.00,SE,140,4.0,7.0,-999,0.00,,,0.00,,2013-10-12 04:14:00,
2013-10-11 23:24:00,70.0,-99.9,-100.00,SE,140,4.0,7.0,-999,0.00,,,0.00,,2013-10-12 04:24:00,
2013-10-11 23:44:00,69.0,-99.9,-100.00,SSE,154,3.0,6.0,-999,0.00,,,0.00,,2013-10-12 04:44:00,
2013-10-11 23:54:00,69.0,-99.9,-100.00,SSE,154,3.0,6.0,-999,0.00,,,0.00,,2013-10-12 04:54:00,